Time,TemperatureF,DewpointF,PressureIn,WindDirection,WindDirectionDegrees,WindSpeedMPH,WindSpeedGustMPH,Humidity,HourlyPrecipIn,Conditions,Clouds,dailyrainin,SoftwareType,DateUTC
2013-07-18 00:00:00,71.6,68.8,30.06,SSE,167,1.0,2.0,91,0.00,,BKN085,0.00,VWS V14.01,2013-07-18 04:00:00,
2013-07-18 00:01:00,71.7,68.9,30.06,SSE,167,1.0,1.0,91,0.00,,BKN085,0.00,VWS V14.01,2013-07-18 04:01:00,
2013-07-18 00:06:00,71.9,69.1,30.06,SW,216,2.0,2.0,91,0.00,,BKN055,0.00,VWS V14.01,2013-07-18 04:06:00,
2013-07-18 00:11:00,72.1,69.0,30.06,SSW,212,1.0,3.0,90,0.00,,BKN055,0.00,VWS V14.01,2013-07-18 04:11:00,
2013-07-18 00:16:00,72.4,69.3,30.06,SE,136,2.0,2.0,90,0.00,,BKN055,0.00,VWS V14.01,2013-07-18 04:16:00,
2013-07-18 00:21:00,72.6,69.2,30.06,SSW,213,1.0,1.0,89,0.00,,BKN055,0.00,VWS V14.01,2013-07-18 04:21:00,
2013-07-18 00:26:00,72.8,69.4,30.06,SSW,204,1.0,2.0,89,0.00,,BKN055,0.00,VWS V14.01,2013-07-18 04:26:00,
2013-07-18 00:31:00,72.9,69.5,30.06,SE,145,2.0,2.0,89,0.00,,BKN055,0.00,VWS V14.01,2013-07-18 04:31:00,
2013-07-18 00:36:00,73.0,69.2,30.06,SE,145,1.0,1.0,88,0.00,,BKN055,0.00,VWS V14.01,2013-07-18 04:36:00,
2013-07-18 00:42:00,73.0,69.2,30.06,SSE,162,2.0,3.0,88,0.00,,BKN055,0.00,VWS V14.01,2013-07-18 04:42:00,
2013-07-18 00:47:00,73.1,69.3,30.05,SE,140,0.0,1.0,88,0.00,,BKN055,0.00,VWS V14.01,2013-07-18 04:47:00,
2013-07-18 00:52:00,73.2,69.4,30.05,SSE,150,0.0,0.0,88,0.00,,BKN055,0.00,VWS V14.01,2013-07-18 04:52:00,
2013-07-18 00:57:00,73.3,69.5,30.05,South,177,2.0,2.0,88,0.00,,BKN055,0.00,VWS V14.01,2013-07-18 04:57:00,
2013-07-18 01:02:00,73.3,69.5,30.05,South,174,1.0,2.0,88,0.00,,BKN055,0.00,VWS V14.01,2013-07-18 05:02:00,
2013-07-18 01:07:00,73.2,69.1,30.05,South,172,0.0,1.0,87,0.00,,RA,0.00,VWS V14.01,2013-07-18 05:07:00,
2013-07-18 01:12:00,73.1,69.0,30.05,South,172,1.0,2.0,87,0.00,,RA,0.00,VWS V14.01,2013-07-18 05:12:00,
2013-07-18 01:17:00,73.0,68.9,30.04,South,172,1.0,2.0,87,0.00,,RA,0.00,VWS V14.01,2013-07-18 05:17:00,
2013-07-18 01:22:00,73.0,68.9,30.04,South,172,1.0,1.0,87,0.00,,RA,0.00,VWS V14.01,2013-07-18 05:22:00,
2013-07-18 01:27:00,72.8,69.0,30.04,South,172,1.0,2.0,88,0.00,,RA,0.00,VWS V14.01,2013-07-18 05:27:00,
2013-07-18 01:32:00,72.6,68.8,30.04,SSE,159,2.0,2.0,88,0.00,,RA,0.00,VWS V14.01,2013-07-18 05:32:00,
2013-07-18 01:37:00,72.5,68.8,30.04,SSE,156,1.0,1.0,88,0.00,,RA,0.00,VWS V14.01,2013-07-18 05:37:00,
2013-07-18 01:42:00,72.4,68.7,30.03,SSE,156,1.0,1.0,88,0.00,,RA,0.00,VWS V14.01,2013-07-18 05:42:00,
2013-07-18 01:47:00,72.3,68.6,30.04,SSE,156,0.0,1.0,88,0.00,,RA,0.00,VWS V14.01,2013-07-18 05:47:00,
2013-07-18 01:52:00,72.2,68.8,30.04,SSE,156,0.0,1.0,89,0.00,,RA,0.00,VWS V14.01,2013-07-18 05:52:00,
2013-07-18 01:57:00,72.2,68.8,30.03,SSE,156,1.0,2.0,89,0.00,,RA,0.00,VWS V14.01,2013-07-18 05:57:00,
2013-07-18 02:02:00,72.1,69.0,30.03,SSE,156,2.0,2.0,90,0.00,,,0.00,VWS V14.01,2013-07-18 06:02:00,
2013-07-18 02:07:00,72.0,68.9,30.03,SSE,156,2.0,2.0,90,0.00,,,0.00,VWS V14.01,2013-07-18 06:07:00,
2013-07-18 02:12:00,72.0,68.9,30.03,SSE,156,0.0,0.0,90,0.00,,,0.00,VWS V14.01,2013-07-18 06:12:00,
2013-07-18 02:17:00,71.9,68.8,30.02,SSE,156,0.0,1.0,90,0.00,,,0.00,VWS V14.01,2013-07-18 06:17:00,
2013-07-18 02:22:00,71.9,68.8,30.02,South,187,1.0,1.0,90,0.00,,,0.00,VWS V14.01,2013-07-18 06:22:00,
2013-07-18 02:27:00,71.8,68.7,30.03,South,187,0.0,1.0,90,0.00,,,0.00,VWS V14.01,2013-07-18 06:27:00,
2013-07-18 02:32:00,71.8,68.7,30.03,SE,130,0.0,1.0,90,0.00,,,0.00,VWS V14.01,2013-07-18 06:32:00,
2013-07-18 02:37:00,71.8,68.7,30.03,SE,130,0.0,1.0,90,0.00,,,0.00,VWS V14.01,2013-07-18 06:37:00,
2013-07-18 02:42:00,71.9,68.8,30.02,SE,130,0.0,0.0,90,0.00,,,0.00,VWS V14.01,2013-07-18 06:42:00,
2013-07-18 02:47:00,71.9,68.8,30.03,SE,130,0.0,1.0,90,0.00,,,0.00,VWS V14.01,2013-07-18 06:47:00,
2013-07-18 02:52:00,71.9,69.1,30.03,SE,130,1.0,2.0,91,0.00,,,0.00,VWS V14.01,2013-07-18 06:52:00,
2013-07-18 02:57:00,71.9,68.8,30.03,SE,130,0.0,1.0,90,0.00,,,0.00,VWS V14.01,2013-07-18 06:57:00,
2013-07-18 03:02:00,71.9,68.8,30.03,SE,130,1.0,1.0,90,0.00,,-RA,0.00,VWS V14.01,2013-07-18 07:02:00,
2013-07-18 03:07:00,71.8,68.7,30.03,SE,130,1.0,1.0,90,0.00,,-RA,0.00,VWS V14.01,2013-07-18 07:07:00,
2013-07-18 03:13:00,71.8,68.7,30.02,SE,130,1.0,1.0,90,0.00,,-RA,0.00,VWS V14.01,2013-07-18 07:13:00,
2013-07-18 03:18:00,71.7,68.9,30.03,SE,130,0.0,1.0,91,0.00,,-RA,0.00,VWS V14.01,2013-07-18 07:18:00,
2013-07-18 03:23:00,71.7,68.6,30.02,SE,130,0.0,0.0,90,0.00,,-RA,0.00,VWS V14.01,2013-07-18 07:23:00,
2013-07-18 03:28:00,71.6,68.5,30.02,SE,130,1.0,2.0,90,0.00,,-RA,0.00,VWS V14.01,2013-07-18 07:28:00,
2013-07-18 03:33:00,71.6,68.8,30.02,SE,130,1.0,1.0,91,0.00,,-RA,0.00,VWS V14.01,2013-07-18 07:33:00,
2013-07-18 03:38:00,71.5,69.1,30.02,West,266,1.0,1.0,92,0.00,,-RA,0.00,VWS V14.01,2013-07-18 07:38:00,
2013-07-18 03:43:00,71.7,69.6,30.02,SSW,202,2.0,3.0,93,0.00,,-RA,0.00,VWS V14.01,2013-07-18 07:43:00,
2013-07-18 03:48:00,72.0,69.9,30.02,SW,234,1.0,2.0,93,0.00,,-RA,0.00,VWS V14.01,2013-07-18 07:48:00,
2013-07-18 03:53:00,72.1,70.0,30.02,North,7,1.0,2.0,93,0.00,,-RA,0.00,VWS V14.01,2013-07-18 07:53:00,
2013-07-18 03:58:00,72.1,69.7,30.02,North,352,1.0,1.0,92,0.00,,-RA,0.00,VWS V14.01,2013-07-18 07:58:00,
2013-07-18 04:03:00,72.1,69.3,30.01,North,352,0.0,0.0,91,0.00,,,0.00,VWS V14.01,2013-07-18 08:03:00,
2013-07-18 04:08:00,72.0,69.6,30.01,North,352,0.0,1.0,92,0.00,,,0.00,VWS V14.01,2013-07-18 08:08:00,
2013-07-18 04:13:00,72.0,69.9,30.01,SE,140,0.0,1.0,93,0.00,,,0.00,VWS V14.01,2013-07-18 08:13:00,
2013-07-18 04:18:00,72.0,69.6,30.02,North,11,3.0,3.0,92,0.00,,,0.00,VWS V14.01,2013-07-18 08:18:00,
2013-07-18 04:23:00,71.9,69.4,30.02,North,357,0.0,0.0,92,0.00,,,0.00,VWS V14.01,2013-07-18 08:23:00,
2013-07-18 04:28:00,71.9,69.8,30.02,SW,218,1.0,2.0,93,0.00,,,0.00,VWS V14.01,2013-07-18 08:28:00,
2013-07-18 04:33:00,72.1,70.0,30.02,SW,227,0.0,1.0,93,0.00,,,0.00,VWS V14.01,2013-07-18 08:33:00,
2013-07-18 04:38:00,72.0,69.9,30.02,North,357,1.0,1.0,93,0.00,,,0.00,VWS V14.01,2013-07-18 08:38:00,
2013-07-18 04:43:00,72.0,69.9,30.02,West,268,1.0,2.0,93,0.00,,,0.00,VWS V14.01,2013-07-18 08:43:00,
2013-07-18 04:48:00,72.1,70.3,30.02,West,268,1.0,1.0,94,0.00,,,0.00,VWS V14.01,2013-07-18 08:48:00,
2013-07-18 04:53:00,72.2,70.4,30.01,SSE,161,2.0,2.0,94,0.00,,,0.00,VWS V14.01,2013-07-18 08:53:00,
2013-07-18 04:59:00,72.3,70.5,30.01,SSE,161,2.0,4.0,94,0.00,,,0.00,VWS V14.01,2013-07-18 08:59:00,
2013-07-18 05:04:00,72.3,70.2,30.01,SSE,153,2.0,2.0,93,0.00,,RA,0.00,VWS V14.01,2013-07-18 09:04:00,
2013-07-18 05:09:00,72.3,70.2,30.01,SSE,153,0.0,1.0,93,0.00,,RA,0.00,VWS V14.01,2013-07-18 09:09:00,
2013-07-18 05:14:00,72.3,70.2,30.01,South,177,1.0,1.0,93,0.00,,RA,0.00,VWS V14.01,2013-07-18 09:14:00,
2013-07-18 05:19:00,72.4,70.3,30.01,SSW,211,0.0,1.0,93,0.00,,RA,0.00,VWS V14.01,2013-07-18 09:19:00,
2013-07-18 05:24:00,72.4,70.3,30.00,SSW,211,1.0,1.0,93,0.00,,RA,0.00,VWS V14.01,2013-07-18 09:24:00,
2013-07-18 05:29:00,72.3,70.2,30.00,South,176,0.0,1.0,93,0.00,,RA,0.00,VWS V14.01,2013-07-18 09:29:00,
2013-07-18 05:34:00,72.3,70.2,30.00,South,176,0.0,0.0,93,0.00,,RA,0.00,VWS V14.01,2013-07-18 09:34:00,
2013-07-18 05:39:00,72.3,70.2,30.00,South,176,1.0,1.0,93,0.00,,RA,0.00,VWS V14.01,2013-07-18 09:39:00,
2013-07-18 05:44:00,72.3,70.5,30.01,NW,323,3.0,3.0,94,0.00,,RA,0.00,VWS V14.01,2013-07-18 09:44:00,
2013-07-18 05:49:00,72.4,70.6,30.03,NNE,17,1.0,1.0,94,0.02,,RA,0.02,VWS V14.01,2013-07-18 09:49:00,
2013-07-18 05:55:00,72.5,71.0,30.02,NE,42,3.0,3.0,95,0.13,,RA,0.13,VWS V14.01,2013-07-18 09:55:00,
2013-07-18 06:00:00,72.5,71.0,30.02,North,352,5.0,8.0,95,0.17,,RA,0.17,VWS V14.01,2013-07-18 10:00:00,
2013-07-18 06:05:00,72.5,71.0,30.02,NNW,328,4.0,4.0,95,0.18,,-RA,0.18,VWS V14.01,2013-07-18 10:05:00,
2013-07-18 06:10:00,72.4,70.9,30.02,North,357,9.0,9.0,95,0.18,,-RA,0.18,VWS V14.01,2013-07-18 10:10:00,
2013-07-18 06:15:00,72.4,70.9,30.02,NNW,338,3.0,4.0,95,0.18,,-RA,0.18,VWS V14.01,2013-07-18 10:15:00,
2013-07-18 06:20:00,72.4,70.9,30.02,NNW,335,3.0,3.0,95,0.18,,-RA,0.18,VWS V14.01,2013-07-18 10:20:00,
2013-07-18 06:25:00,72.4,70.9,30.02,North,350,3.0,3.0,95,0.18,,-RA,0.18,VWS V14.01,2013-07-18 10:25:00,
2013-07-18 06:30:00,72.3,70.8,30.02,NNW,333,0.0,2.0,95,0.18,,-RA,0.18,VWS V14.01,2013-07-18 10:30:00,
2013-07-18 06:35:00,72.3,70.8,30.02,NNW,345,0.0,1.0,95,0.18,,-RA,0.18,VWS V14.01,2013-07-18 10:35:00,
2013-07-18 06:40:00,72.2,70.7,30.02,ENE,64,2.0,2.0,95,0.18,,-RA,0.18,VWS V14.01,2013-07-18 10:40:00,
2013-07-18 06:45:00,72.0,70.2,30.02,NE,47,3.0,6.0,94,0.18,,-RA,0.18,VWS V14.01,2013-07-18 10:45:00,
2013-07-18 06:50:00,71.8,70.0,30.02,ENE,70,2.0,3.0,94,0.18,,-RA,0.18,VWS V14.01,2013-07-18 10:50:00,
2013-07-18 06:55:00,71.7,69.9,30.02,ESE,122,2.0,3.0,94,0.18,,-RA,0.18,VWS V14.01,2013-07-18 10:55:00,
2013-07-18 07:00:00,71.7,69.9,30.02,SE,139,4.0,4.0,94,0.18,,-RA,0.18,VWS V14.01,2013-07-18 11:00:00,
2013-07-18 07:05:00,71.6,69.8,30.01,SE,134,2.0,2.0,94,0.00,,,0.18,VWS V14.01,2013-07-18 11:05:00,
2013-07-18 07:10:00,71.4,69.6,30.01,SE,132,1.0,2.0,94,0.00,,,0.18,VWS V14.01,2013-07-18 11:10:00,
2013-07-18 07:15:00,71.3,69.5,30.01,SE,143,1.0,1.0,94,0.00,,,0.18,VWS V14.01,2013-07-18 11:15:00,
2013-07-18 07:20:00,71.3,69.5,30.01,SSE,157,3.0,4.0,94,0.00,,,0.18,VWS V14.01,2013-07-18 11:20:00,
2013-07-18 07:25:00,71.4,69.9,30.01,ESE,113,3.0,3.0,95,0.00,,,0.18,VWS V14.01,2013-07-18 11:25:00,
2013-07-18 07:30:00,71.6,70.1,30.01,ESE,115,1.0,2.0,95,0.00,,,0.18,VWS V14.01,2013-07-18 11:30:00,
2013-07-18 07:35:00,71.8,70.3,30.00,SSE,156,3.0,3.0,95,0.00,,,0.18,VWS V14.01,2013-07-18 11:35:00,
2013-07-18 07:40:00,72.1,70.6,30.01,SW,225,2.0,3.0,95,0.00,,,0.18,VWS V14.01,2013-07-18 11:40:00,
2013-07-18 07:45:00,72.2,70.4,30.01,SW,221,3.0,3.0,94,0.00,,,0.18,VWS V14.01,2013-07-18 11:45:00,
2013-07-18 07:50:00,72.4,70.6,30.00,SE,130,1.0,2.0,94,0.00,,,0.18,VWS V14.01,2013-07-18 11:50:00,
2013-07-18 07:55:00,72.6,70.8,30.00,SSE,153,1.0,1.0,94,0.00,,,0.18,VWS V14.01,2013-07-18 11:55:00,
2013-07-18 08:00:00,73.0,71.2,30.00,SE,142,3.0,4.0,94,0.00,,,0.18,VWS V14.01,2013-07-18 12:00:00,
2013-07-18 08:05:00,73.4,71.3,30.01,SSW,203,1.0,2.0,93,0.00,,-RA,0.18,VWS V14.01,2013-07-18 12:05:00,
2013-07-18 08:10:00,73.6,71.1,30.00,SE,131,2.0,3.0,92,0.00,,-RA,0.18,VWS V14.01,2013-07-18 12:10:00,
2013-07-18 08:15:00,73.9,71.1,30.00,SE,135,4.0,8.0,91,0.00,,-RA,0.18,VWS V14.01,2013-07-18 12:15:00,
2013-07-18 08:20:00,74.3,71.2,30.00,SE,124,3.0,4.0,90,0.00,,-RA,0.18,VWS V14.01,2013-07-18 12:20:00,
2013-07-18 08:25:00,74.6,71.5,30.00,ESE,122,3.0,3.0,90,0.00,,-RA,0.18,VWS V14.01,2013-07-18 12:25:00,
2013-07-18 08:30:00,75.1,72.0,30.00,SSE,159,1.0,1.0,90,0.00,,-RA,0.18,VWS V14.01,2013-07-18 12:30:00,
2013-07-18 08:35:00,75.5,72.4,30.00,SE,137,3.0,3.0,90,0.00,,-RA,0.18,VWS V14.01,2013-07-18 12:35:00,
2013-07-18 08:40:00,76.0,72.5,29.99,SE,135,2.0,3.0,89,0.00,,-RA,0.18,VWS V14.01,2013-07-18 12:40:00,
2013-07-18 08:45:00,76.5,72.7,30.00,South,183,3.0,3.0,88,0.00,,-RA,0.18,VWS V14.01,2013-07-18 12:45:00,
2013-07-18 08:50:00,76.9,73.1,30.00,SE,146,2.0,2.0,88,0.00,,-RA,0.18,VWS V14.01,2013-07-18 12:50:00,
2013-07-18 08:55:00,77.2,73.0,30.00,SSW,211,2.0,2.0,87,0.00,,-RA,0.18,VWS V14.01,2013-07-18 12:55:00,
2013-07-18 09:00:00,77.5,73.3,29.99,SW,236,4.0,4.0,87,0.00,,-RA,0.18,VWS V14.01,2013-07-18 13:00:00,
2013-07-18 09:06:00,77.8,74.0,29.99,SW,227,2.0,3.0,88,0.00,,-RA,0.18,VWS V14.01,2013-07-18 13:06:00,
2013-07-18 09:11:00,78.1,73.6,30.00,SW,234,2.0,3.0,86,0.00,,-RA,0.18,VWS V14.01,2013-07-18 13:11:00,
2013-07-18 09:16:00,78.4,73.9,30.00,SSE,154,1.0,2.0,86,0.00,,-RA,0.18,VWS V14.01,2013-07-18 13:16:00,
2013-07-18 09:21:00,78.6,73.4,30.00,ESE,113,1.0,1.0,84,0.00,,-RA,0.18,VWS V14.01,2013-07-18 13:21:00,
2013-07-18 09:26:00,78.8,73.6,30.00,NNE,17,1.0,1.0,84,0.00,,-RA,0.18,VWS V14.01,2013-07-18 13:26:00,
2013-07-18 09:31:00,78.8,73.6,30.00,NNE,17,1.0,1.0,84,0.00,,-RA,0.18,VWS V14.01,2013-07-18 13:31:00,
2013-07-18 09:36:00,78.7,73.5,30.00,NE,44,3.0,3.0,84,0.00,,-RA,0.18,VWS V14.01,2013-07-18 13:36:00,
2013-07-18 09:41:00,78.2,73.3,30.00,ENE,61,2.0,3.0,85,0.00,,-RA,0.18,VWS V14.01,2013-07-18 13:41:00,
2013-07-18 09:46:00,77.7,73.2,30.01,NE,45,3.0,3.0,86,0.00,,-RA,0.18,VWS V14.01,2013-07-18 13:46:00,
2013-07-18 09:51:00,77.3,72.8,30.01,NE,42,2.0,2.0,86,0.00,,-RA,0.18,VWS V14.01,2013-07-18 13:51:00,
2013-07-18 09:56:00,77.0,72.5,30.00,ENE,61,2.0,2.0,86,0.00,,-RA,0.18,VWS V14.01,2013-07-18 13:56:00,
2013-07-18 10:01:00,76.4,71.9,30.00,ENE,71,5.0,5.0,86,0.00,,-RA,0.18,VWS V14.01,2013-07-18 14:01:00,
2013-07-18 10:06:00,75.9,71.8,30.01,NNE,26,6.0,7.0,87,0.00,,-RA,0.18,VWS V14.01,2013-07-18 14:06:00,
2013-07-18 10:11:00,75.3,71.2,30.00,East,86,7.0,9.0,87,0.00,,-RA,0.18,VWS V14.01,2013-07-18 14:11:00,
2013-07-18 10:16:00,74.5,70.7,30.01,NE,36,10.0,12.0,88,0.00,,-RA,0.18,VWS V14.01,2013-07-18 14:16:00,
2013-07-18 10:34:00,71.7,69.6,30.01,ESE,107,1.0,1.0,93,0.34,,-RA,0.52,VWS V14.01,2013-07-18 14:34:00,
2013-07-18 10:39:00,71.5,69.7,30.00,East,88,5.0,6.0,94,0.34,,-RA,0.52,VWS V14.01,2013-07-18 14:39:00,
2013-07-18 10:44:00,71.4,69.9,30.00,ENE,64,4.0,5.0,95,0.34,,-RA,0.52,VWS V14.01,2013-07-18 14:44:00,
2013-07-18 10:49:00,71.5,70.0,30.01,ENE,74,6.0,6.0,95,0.34,,-RA,0.52,VWS V14.01,2013-07-18 14:49:00,
2013-07-18 10:54:00,71.6,70.4,30.01,East,81,5.0,8.0,96,0.34,,-RA,0.52,VWS V14.01,2013-07-18 14:54:00,
2013-07-18 10:59:00,71.9,70.7,30.01,ENE,71,4.0,5.0,96,0.34,,-RA,0.52,VWS V14.01,2013-07-18 14:59:00,
2013-07-18 11:04:00,72.1,70.9,30.01,ESE,113,3.0,6.0,96,0.34,, +RA,0.52,VWS V14.01,2013-07-18 15:04:00,
2013-07-18 11:09:00,72.0,70.5,30.01,SE,135,2.0,2.0,95,0.34,, +RA,0.52,VWS V14.01,2013-07-18 15:09:00,
2013-07-18 11:14:00,72.1,70.6,30.01,SE,146,3.0,4.0,95,0.34,, +RA,0.52,VWS V14.01,2013-07-18 15:14:00,
2013-07-18 11:19:00,72.1,70.6,30.02,SE,131,2.0,2.0,95,0.34,, +RA,0.52,VWS V14.01,2013-07-18 15:19:00,
2013-07-18 11:24:00,72.1,70.6,30.06,North,2,5.0,8.0,95,0.36,, +RA,0.54,VWS V14.01,2013-07-18 15:24:00,
2013-07-18 11:30:00,71.9,70.4,30.04,North,350,2.0,2.0,95,0.53,, +RA,0.71,VWS V14.01,2013-07-18 15:30:00,
2013-07-18 11:35:00,71.9,70.4,30.02,SW,217,3.0,3.0,95,0.32,, +RA,0.84,VWS V14.01,2013-07-18 15:35:00,
2013-07-18 11:40:00,71.8,70.6,30.02,SE,140,1.0,2.0,96,0.33,, +RA,0.85,VWS V14.01,2013-07-18 15:40:00,
2013-07-18 11:45:00,71.8,70.6,30.01,ESE,104,1.0,2.0,96,0.34,, +RA,0.86,VWS V14.01,2013-07-18 15:45:00,
2013-07-18 11:50:00,71.8,70.6,30.01,SE,125,1.0,2.0,96,0.34,, +RA,0.86,VWS V14.01,2013-07-18 15:50:00,
2013-07-18 11:55:00,71.8,70.6,30.00,South,172,1.0,2.0,96,0.34,, +RA,0.86,VWS V14.01,2013-07-18 15:55:00,
2013-07-18 12:00:00,71.9,70.7,30.00,SW,217,2.0,2.0,96,0.34,, +RA,0.86,VWS V14.01,2013-07-18 16:00:00,
2013-07-18 12:05:00,72.1,70.9,30.00,SW,217,0.0,1.0,96,0.34,,OVC003,0.86,VWS V14.01,2013-07-18 16:05:00,
2013-07-18 12:10:00,72.2,71.0,30.00,SW,217,1.0,1.0,96,0.34,,OVC003,0.86,VWS V14.01,2013-07-18 16:10:00,
2013-07-18 12:16:00,72.4,71.2,30.00,SE,132,1.0,1.0,96,0.34,,OVC003,0.86,VWS V14.01,2013-07-18 16:16:00,
2013-07-18 12:21:00,72.8,71.6,29.99,ESE,120,2.0,3.0,96,0.34,,OVC003,0.86,VWS V14.01,2013-07-18 16:21:00,
2013-07-18 12:26:00,73.0,71.8,29.99,ESE,113,2.0,3.0,96,0.34,,OVC003,0.86,VWS V14.01,2013-07-18 16:26:00,
2013-07-18 12:31:00,73.3,71.8,29.98,SE,146,2.0,2.0,95,0.34,,OVC003,0.86,VWS V14.01,2013-07-18 16:31:00,
2013-07-18 12:36:00,73.7,72.2,29.98,ESE,102,3.0,6.0,95,0.06,,OVC003,0.86,VWS V14.01,2013-07-18 16:36:00,
2013-07-18 12:41:00,73.9,72.1,29.98,SE,131,2.0,3.0,94,0.06,,OVC003,0.86,VWS V14.01,2013-07-18 16:41:00,
2013-07-18 12:46:00,74.1,71.9,29.97,WSW,256,2.0,3.0,93,0.06,,OVC003,0.86,VWS V14.01,2013-07-18 16:46:00,
2013-07-18 12:51:00,74.3,72.2,29.97,ESE,121,3.0,5.0,93,0.06,,OVC003,0.86,VWS V14.01,2013-07-18 16:51:00,
2013-07-18 12:56:00,74.6,72.4,29.97,SSE,149,3.0,3.0,93,0.06,,OVC003,0.86,VWS V14.01,2013-07-18 16:56:00,
2013-07-18 13:01:00,75.0,72.2,29.97,SSW,208,3.0,4.0,91,0.06,,OVC003,0.86,VWS V14.01,2013-07-18 17:01:00,
2013-07-18 13:06:00,75.5,72.4,29.97,SE,145,3.0,4.0,90,0.00,,SCT003,0.86,VWS V14.01,2013-07-18 17:06:00,
2013-07-18 13:11:00,75.7,72.6,29.96,SW,223,3.0,3.0,90,0.00,,SCT003,0.86,VWS V14.01,2013-07-18 17:11:00,
2013-07-18 13:16:00,76.1,73.6,29.96,SW,221,2.0,2.0,92,0.00,,SCT003,0.86,VWS V14.01,2013-07-18 17:16:00,
2013-07-18 13:21:00,76.5,74.0,29.96,ESE,115,2.0,3.0,92,0.00,,SCT003,0.86,VWS V14.01,2013-07-18 17:21:00,
2013-07-18 13:26:00,77.1,74.3,29.95,SW,218,3.0,5.0,91,0.00,,SCT003,0.86,VWS V14.01,2013-07-18 17:26:00,
2013-07-18 13:31:00,77.8,74.3,29.95,South,173,6.0,6.0,89,0.00,,SCT003,0.86,VWS V14.01,2013-07-18 17:31:00,
2013-07-18 13:36:00,78.2,74.4,29.95,ESE,102,4.0,8.0,88,0.00,,SCT003,0.86,VWS V14.01,2013-07-18 17:36:00,
2013-07-18 13:41:00,78.4,74.6,29.94,SSW,197,2.0,3.0,88,0.00,,SCT003,0.86,VWS V14.01,2013-07-18 17:41:00,
2013-07-18 13:46:00,79.0,74.8,29.94,SE,145,3.0,9.0,87,0.00,,SCT003,0.86,VWS V14.01,2013-07-18 17:46:00,
2013-07-18 13:51:00,79.2,74.7,29.94,SSW,201,4.0,6.0,86,0.00,,SCT003,0.86,VWS V14.01,2013-07-18 17:51:00,
2013-07-18 13:56:00,79.1,74.6,29.94,West,272,3.0,4.0,86,0.00,,SCT003,0.86,VWS V14.01,2013-07-18 17:56:00,
2013-07-18 14:01:00,78.9,73.7,29.95,NNW,328,3.0,3.0,84,0.00,,SCT003,0.86,VWS V14.01,2013-07-18 18:01:00,
2013-07-18 14:06:00,78.5,74.0,29.95,NNE,30,2.0,4.0,86,0.00,,CLR,0.86,VWS V14.01,2013-07-18 18:06:00,
2013-07-18 14:17:00,78.1,74.6,29.95,SW,235,3.0,3.0,89,0.07,,CLR,0.93,VWS V14.01,2013-07-18 18:17:00,
2013-07-18 14:22:00,77.6,74.4,29.94,SSW,211,1.0,2.0,90,0.08,,CLR,0.94,VWS V14.01,2013-07-18 18:22:00,
2013-07-18 14:27:00,77.5,74.7,29.93,SSW,211,1.0,1.0,91,0.08,,CLR,0.94,VWS V14.01,2013-07-18 18:27:00,
2013-07-18 14:32:00,77.3,74.1,29.94,SW,225,2.0,2.0,90,0.10,,CLR,0.96,VWS V14.01,2013-07-18 18:32:00,
2013-07-18 14:37:00,77.3,74.5,29.93,South,185,1.0,1.0,91,0.11,,CLR,0.97,VWS V14.01,2013-07-18 18:37:00,
2013-07-18 14:42:00,77.1,73.9,29.93,SE,141,1.0,1.0,90,0.11,,CLR,0.97,VWS V14.01,2013-07-18 18:42:00,
2013-07-18 14:47:00,77.1,74.6,29.93,SE,141,1.0,1.0,92,0.11,,CLR,0.97,VWS V14.01,2013-07-18 18:47:00,
2013-07-18 14:52:00,77.2,74.7,29.92,SE,141,0.0,0.0,92,0.11,,CLR,0.97,VWS V14.01,2013-07-18 18:52:00,
2013-07-18 14:57:00,77.6,75.7,29.92,South,179,1.0,2.0,94,0.11,,CLR,0.97,VWS V14.01,2013-07-18 18:57:00,
2013-07-18 15:02:00,78.1,75.9,29.92,SSW,199,1.0,2.0,93,0.11,,FEW047,0.97,VWS V14.01,2013-07-18 19:02:00,
2013-07-18 15:03:00,78.2,76.3,29.92,SSW,192,1.0,2.0,94,0.11,,FEW047,0.97,VWS V14.01,2013-07-18 19:03:00,
2013-07-18 15:08:00,78.4,74.9,29.91,SE,138,2.0,3.0,89,0.11,,FEW047,0.97,VWS V14.01,2013-07-18 19:08:00,
2013-07-18 15:13:00,78.8,75.6,29.91,SE,130,1.0,3.0,90,0.11,,FEW047,0.97,VWS V14.01,2013-07-18 19:13:00,
2013-07-18 15:18:00,78.9,74.7,29.91,SW,231,0.0,1.0,87,0.11,,FEW047,0.97,VWS V14.01,2013-07-18 19:18:00,
2013-07-18 15:23:00,79.1,75.6,29.91,West,269,2.0,2.0,89,0.11,,FEW047,0.97,VWS V14.01,2013-07-18 19:23:00,
2013-07-18 15:28:00,79.5,75.3,29.91,SSE,164,1.0,2.0,87,0.11,,FEW047,0.97,VWS V14.01,2013-07-18 19:28:00,
2013-07-18 15:33:00,80.2,76.3,29.91,SSW,207,5.0,5.0,88,0.01,,FEW047,0.97,VWS V14.01,2013-07-18 19:33:00,
2013-07-18 15:38:00,80.8,75.5,29.90,SSW,197,3.0,3.0,84,0.01,,FEW047,0.97,VWS V14.01,2013-07-18 19:38:00,
2013-07-18 15:43:00,81.3,75.3,29.89,West,273,4.0,7.0,82,0.01,,FEW047,0.97,VWS V14.01,2013-07-18 19:43:00,
2013-07-18 15:48:00,81.5,75.5,29.89,South,191,5.0,5.0,82,0.01,,FEW047,0.97,VWS V14.01,2013-07-18 19:48:00,
2013-07-18 15:53:00,81.8,75.8,29.88,SW,229,2.0,4.0,82,0.01,,FEW047,0.97,VWS V14.01,2013-07-18 19:53:00,
2013-07-18 15:58:00,82.3,75.5,29.88,SW,215,1.0,4.0,80,0.01,,FEW047,0.97,VWS V14.01,2013-07-18 19:58:00,
2013-07-18 16:04:00,82.9,76.1,29.88,SSW,204,2.0,3.0,80,0.00,,SCT049,0.97,VWS V14.01,2013-07-18 20:04:00,
2013-07-18 16:09:00,82.9,76.1,29.88,WSW,241,1.0,2.0,80,0.00,,SCT049,0.97,VWS V14.01,2013-07-18 20:09:00,
2013-07-18 16:14:00,82.7,76.3,29.87,SW,217,6.0,6.0,81,0.00,,SCT049,0.97,VWS V14.01,2013-07-18 20:14:00,
2013-07-18 16:19:00,82.5,76.1,29.87,WSW,248,5.0,5.0,81,0.00,,SCT049,0.97,VWS V14.01,2013-07-18 20:19:00,
2013-07-18 16:24:00,82.6,76.6,29.86,SW,226,4.0,4.0,82,0.00,,SCT049,0.97,VWS V14.01,2013-07-18 20:24:00,
2013-07-18 16:29:00,82.5,75.7,29.86,WSW,242,2.0,3.0,80,0.00,,SCT049,0.97,VWS V14.01,2013-07-18 20:29:00,
2013-07-18 16:34:00,82.5,76.1,29.86,SSW,207,4.0,8.0,81,0.00,,SCT049,0.97,VWS V14.01,2013-07-18 20:34:00,
2013-07-18 16:39:00,82.4,75.2,29.86,SW,231,9.0,9.0,79,0.00,,SCT049,0.97,VWS V14.01,2013-07-18 20:39:00,
2013-07-18 16:44:00,82.2,74.7,29.85,West,278,7.0,8.0,78,0.00,,SCT049,0.97,VWS V14.01,2013-07-18 20:44:00,
2013-07-18 16:49:00,82.2,74.3,29.85,SW,215,5.0,10.0,77,0.00,,SCT049,0.97,VWS V14.01,2013-07-18 20:49:00,
2013-07-18 16:54:00,82.2,74.3,29.85,SW,214,5.0,7.0,77,0.00,,SCT049,0.97,VWS V14.01,2013-07-18 20:54:00,
2013-07-18 16:59:00,82.0,74.5,29.85,SW,234,6.0,6.0,78,0.00,,SCT049,0.97,VWS V14.01,2013-07-18 20:59:00,
2013-07-18 17:04:00,81.6,74.1,29.84,SW,217,6.0,6.0,78,0.00,,BKN075,0.97,VWS V14.01,2013-07-18 21:04:00,
2013-07-18 17:09:00,81.5,74.4,29.84,SW,214,2.0,4.0,79,0.00,,BKN075,0.97,VWS V14.01,2013-07-18 21:09:00,
2013-07-18 17:14:00,81.4,74.3,29.84,WSW,254,7.0,7.0,79,0.00,,BKN075,0.97,VWS V14.01,2013-07-18 21:14:00,
2013-07-18 17:19:00,81.3,73.8,29.83,SW,215,6.0,9.0,78,0.00,,BKN075,0.97,VWS V14.01,2013-07-18 21:19:00,
2013-07-18 17:24:00,81.4,73.9,29.83,SW,221,5.0,6.0,78,0.00,,BKN075,0.97,VWS V14.01,2013-07-18 21:24:00,
2013-07-18 17:29:00,81.5,74.0,29.83,West,268,7.0,8.0,78,0.00,,BKN075,0.97,VWS V14.01,2013-07-18 21:29:00,
2013-07-18 17:34:00,82.1,74.6,29.83,WSW,258,5.0,9.0,78,0.00,,BKN075,0.97,VWS V14.01,2013-07-18 21:34:00,
2013-07-18 17:39:00,83.1,74.8,29.83,West,264,10.0,13.0,76,0.00,,BKN075,0.97,VWS V14.01,2013-07-18 21:39:00,
2013-07-18 17:44:00,83.8,75.4,29.83,SE,130,3.0,10.0,76,0.00,,BKN075,0.97,VWS V14.01,2013-07-18 21:44:00,
2013-07-18 17:49:00,84.3,75.1,29.82,SW,232,9.0,10.0,74,0.00,,BKN075,0.97,VWS V14.01,2013-07-18 21:49:00,
2013-07-18 17:54:00,84.7,75.1,29.82,WSW,250,5.0,11.0,73,0.00,,BKN075,0.97,VWS V14.01,2013-07-18 21:54:00,
2013-07-18 17:59:00,85.1,75.5,29.82,SW,215,13.0,14.0,73,0.00,,BKN075,0.97,VWS V14.01,2013-07-18 21:59:00,
2013-07-18 18:04:00,85.4,74.9,29.82,WSW,257,8.0,8.0,71,0.00,,,0.97,VWS V14.01,2013-07-18 22:04:00,
2013-07-18 18:09:00,85.6,75.1,29.82,WSW,245,4.0,8.0,71,0.00,,,0.97,VWS V14.01,2013-07-18 22:09:00,
2013-07-18 18:14:00,85.7,74.8,29.81,SW,235,8.0,10.0,70,0.00,,,0.97,VWS V14.01,2013-07-18 22:14:00,
2013-07-18 18:19:00,85.9,74.1,29.81,WNW,298,12.0,12.0,68,0.00,,,0.97,VWS V14.01,2013-07-18 22:19:00,
2013-07-18 18:24:00,86.1,74.8,29.81,SW,221,3.0,5.0,69,0.00,,,0.97,VWS V14.01,2013-07-18 22:24:00,
2013-07-18 18:29:00,86.3,74.5,29.81,West,276,4.0,9.0,68,0.00,,,0.97,VWS V14.01,2013-07-18 22:29:00,
2013-07-18 18:34:00,86.3,74.1,29.80,WSW,252,10.0,10.0,67,0.00,,,0.97,VWS V14.01,2013-07-18 22:34:00,
2013-07-18 18:39:00,86.2,74.4,29.80,WSW,248,5.0,7.0,68,0.00,,,0.97,VWS V14.01,2013-07-18 22:39:00,
2013-07-18 18:44:00,86.2,74.0,29.79,West,269,10.0,10.0,67,0.00,,,0.97,VWS V14.01,2013-07-18 22:44:00,
2013-07-18 18:49:00,86.2,73.5,29.79,West,269,18.0,20.0,66,0.00,,,0.97,VWS V14.01,2013-07-18 22:49:00,
2013-07-18 18:54:00,86.1,73.9,29.78,WSW,253,12.0,12.0,67,0.00,,,0.97,VWS V14.01,2013-07-18 22:54:00,
2013-07-18 18:59:00,86.1,73.9,29.77,SSW,213,6.0,10.0,67,0.00,,,0.97,VWS V14.01,2013-07-18 22:59:00,
2013-07-18 19:04:00,86.1,73.4,29.77,WSW,238,7.0,10.0,66,0.00,,FEW003,0.97,VWS V14.01,2013-07-18 23:04:00,
2013-07-18 19:09:00,86.0,73.8,29.76,WSW,247,8.0,10.0,67,0.00,,FEW003,0.97,VWS V14.01,2013-07-18 23:09:00,
2013-07-18 19:14:00,86.0,73.3,29.76,SW,228,5.0,9.0,66,0.00,,FEW003,0.97,VWS V14.01,2013-07-18 23:14:00,
2013-07-18 19:19:00,85.9,73.2,29.76,WSW,237,11.0,11.0,66,0.00,,FEW003,0.97,VWS V14.01,2013-07-18 23:19:00,
2013-07-18 19:24:00,85.6,72.9,29.76,West,259,3.0,4.0,66,0.00,,FEW003,0.97,VWS V14.01,2013-07-18 23:24:00,
2013-07-18 19:29:00,85.5,72.8,29.76,SW,232,15.0,20.0,66,0.00,,FEW003,0.97,VWS V14.01,2013-07-18 23:29:00,
2013-07-18 19:34:00,85.1,72.9,29.76,SW,225,4.0,8.0,67,0.00,,FEW003,0.97,VWS V14.01,2013-07-18 23:34:00,
2013-07-18 19:39:00,84.6,72.9,29.76,WSW,246,3.0,3.0,68,0.00,,FEW003,0.97,VWS V14.01,2013-07-18 23:39:00,
2013-07-18 19:44:00,84.3,72.6,29.76,SW,231,6.0,7.0,68,0.00,,FEW003,0.97,VWS V14.01,2013-07-18 23:44:00,
2013-07-18 19:50:00,84.0,72.7,29.76,SW,219,4.0,7.0,69,0.00,,FEW003,0.97,VWS V14.01,2013-07-18 23:50:00,
2013-07-18 19:55:00,83.6,72.4,29.75,SSW,205,5.0,7.0,69,0.00,,FEW003,0.97,VWS V14.01,2013-07-18 23:55:00,
2013-07-18 20:00:00,83.4,72.2,29.75,WSW,237,10.0,10.0,69,0.00,,FEW003,0.97,VWS V14.01,2013-07-19 00:00:00,
2013-07-18 20:05:00,83.3,72.1,29.74,SSW,213,10.0,14.0,69,0.00,,OVC003,0.97,VWS V14.01,2013-07-19 00:05:00,
2013-07-18 20:10:00,83.3,72.1,29.74,SSW,213,5.0,9.0,69,0.00,,OVC003,0.97,VWS V14.01,2013-07-19 00:10:00,
2013-07-18 20:15:00,83.3,72.1,29.74,WSW,245,10.0,10.0,69,0.00,,OVC003,0.97,VWS V14.01,2013-07-19 00:15:00,
2013-07-18 20:20:00,83.4,71.7,29.75,South,171,5.0,16.0,68,0.00,,OVC003,0.97,VWS V14.01,2013-07-19 00:20:00,
2013-07-18 20:25:00,83.4,71.7,29.75,SSW,202,7.0,8.0,68,0.00,,OVC003,0.97,VWS V14.01,2013-07-19 00:25:00,
2013-07-18 20:30:00,83.4,71.7,29.75,SW,223,13.0,13.0,68,0.00,,OVC003,0.97,VWS V14.01,2013-07-19 00:30:00,
2013-07-18 20:35:00,83.5,71.4,29.75,SSW,210,7.0,8.0,67,0.00,,OVC003,0.97,VWS V14.01,2013-07-19 00:35:00,
2013-07-18 20:40:00,83.7,71.6,29.75,SSW,208,7.0,10.0,67,0.00,,OVC003,0.97,VWS V14.01,2013-07-19 00:40:00,
2013-07-18 20:45:00,83.6,71.5,29.75,WSW,244,10.0,10.0,67,0.00,,OVC003,0.97,VWS V14.01,2013-07-19 00:45:00,
2013-07-18 20:50:00,83.7,71.6,29.75,SW,221,14.0,14.0,67,0.00,,OVC003,0.97,VWS V14.01,2013-07-19 00:50:00,
2013-07-18 20:55:00,83.9,71.8,29.74,SSW,211,8.0,10.0,67,0.00,,OVC003,0.97,VWS V14.01,2013-07-19 00:55:00,
2013-07-18 21:00:00,83.9,71.8,29.74,West,267,11.0,15.0,67,0.00,,OVC003,0.97,VWS V14.01,2013-07-19 01:00:00,
2013-07-18 21:05:00,83.8,71.7,29.73,SW,235,15.0,17.0,67,0.00,,FEW003,0.97,VWS V14.01,2013-07-19 01:05:00,
2013-07-18 21:10:00,83.9,71.8,29.73,WSW,254,10.0,18.0,67,0.00,,FEW003,0.97,VWS V14.01,2013-07-19 01:10:00,
2013-07-18 21:15:00,83.9,71.8,29.73,WSW,254,10.0,20.0,67,0.00,,FEW003,0.97,VWS V14.01,2013-07-19 01:15:00,
2013-07-18 21:20:00,83.8,71.7,29.74,WSW,258,16.0,19.0,67,0.00,,FEW003,0.97,VWS V14.01,2013-07-19 01:20:00,
2013-07-18 21:25:00,83.8,71.7,29.74,WSW,248,17.0,17.0,67,0.00,,FEW003,0.97,VWS V14.01,2013-07-19 01:25:00,
2013-07-18 21:30:00,83.8,71.7,29.74,WSW,240,15.0,25.0,67,0.00,,FEW003,0.97,VWS V14.01,2013-07-19 01:30:00,
2013-07-18 21:35:00,83.8,71.7,29.73,SSW,205,7.0,12.0,67,0.00,,FEW003,0.97,VWS V14.01,2013-07-19 01:35:00,
2013-07-18 21:40:00,83.7,71.6,29.73,WNW,285,10.0,10.0,67,0.00,,FEW003,0.97,VWS V14.01,2013-07-19 01:40:00,
2013-07-18 21:45:00,83.6,71.9,29.74,WSW,239,12.0,14.0,68,0.00,,FEW003,0.97,VWS V14.01,2013-07-19 01:45:00,
2013-07-18 21:50:00,83.6,71.5,29.74,SSW,213,10.0,14.0,67,0.00,,FEW003,0.97,VWS V14.01,2013-07-19 01:50:00,
2013-07-18 21:56:00,83.5,71.4,29.73,SW,215,7.0,10.0,67,0.00,,FEW003,0.97,VWS V14.01,2013-07-19 01:56:00,
2013-07-18 22:01:00,83.4,71.7,29.73,West,259,19.0,19.0,68,0.00,,FEW003,0.97,VWS V14.01,2013-07-19 02:01:00,
2013-07-18 22:06:00,83.2,71.6,29.73,WSW,238,13.0,13.0,68,0.00,,CLR,0.97,VWS V14.01,2013-07-19 02:06:00,
2013-07-18 22:11:00,83.0,71.8,29.73,WSW,256,13.0,13.0,69,0.00,,CLR,0.97,VWS V14.01,2013-07-19 02:11:00,
2013-07-18 22:16:00,83.0,71.8,29.73,West,278,8.0,9.0,69,0.00,,CLR,0.97,VWS V14.01,2013-07-19 02:16:00,
2013-07-18 22:21:00,83.0,71.8,29.73,West,280,7.0,9.0,69,0.00,,CLR,0.97,VWS V14.01,2013-07-19 02:21:00,
2013-07-18 22:26:00,83.0,71.8,29.73,SW,229,12.0,14.0,69,0.00,,CLR,0.97,VWS V14.01,2013-07-19 02:26:00,
2013-07-18 22:31:00,83.0,71.8,29.72,SW,224,10.0,12.0,69,0.00,,CLR,0.97,VWS V14.01,2013-07-19 02:31:00,
2013-07-18 22:36:00,83.0,71.8,29.73,SW,229,9.0,9.0,69,0.00,,CLR,0.97,VWS V14.01,2013-07-19 02:36:00,
2013-07-18 22:41:00,82.9,71.7,29.72,WSW,246,11.0,17.0,69,0.00,,CLR,0.97,VWS V14.01,2013-07-19 02:41:00,
2013-07-18 22:46:00,82.9,71.7,29.72,NNW,327,15.0,25.0,69,0.00,,CLR,0.97,VWS V14.01,2013-07-19 02:46:00,
2013-07-18 22:51:00,82.9,71.7,29.72,WSW,248,16.0,17.0,69,0.00,,CLR,0.97,VWS V14.01,2013-07-19 02:51:00,
2013-07-18 22:56:00,82.9,71.7,29.72,SSW,211,8.0,11.0,69,0.00,,CLR,0.97,VWS V14.01,2013-07-19 02:56:00,
2013-07-18 23:01:00,82.9,71.7,29.72,SW,228,11.0,17.0,69,0.00,,CLR,0.97,VWS V14.01,2013-07-19 03:01:00,
2013-07-18 23:06:00,82.8,71.6,29.72,WSW,238,10.0,15.0,69,0.00,, +RA,0.97,VWS V14.01,2013-07-19 03:06:00,
2013-07-18 23:11:00,82.7,71.5,29.72,SW,223,10.0,15.0,69,0.00,, +RA,0.97,VWS V14.01,2013-07-19 03:11:00,
2013-07-18 23:16:00,82.6,71.4,29.71,SW,224,5.0,7.0,69,0.00,, +RA,0.97,VWS V14.01,2013-07-19 03:16:00,
2013-07-18 23:21:00,82.7,71.5,29.72,SSW,210,14.0,19.0,69,0.00,, +RA,0.97,VWS V14.01,2013-07-19 03:21:00,
2013-07-18 23:26:00,82.7,71.5,29.71,SSW,194,10.0,10.0,69,0.00,, +RA,0.97,VWS V14.01,2013-07-19 03:26:00,
2013-07-18 23:31:00,82.7,71.5,29.72,WSW,252,12.0,25.0,69,0.00,, +RA,0.97,VWS V14.01,2013-07-19 03:31:00,
2013-07-18 23:36:00,82.7,71.5,29.71,WSW,242,10.0,11.0,69,0.00,, +RA,0.97,VWS V14.01,2013-07-19 03:36:00,
2013-07-18 23:41:00,82.7,71.5,29.71,WSW,248,5.0,8.0,69,0.00,, +RA,0.97,VWS V14.01,2013-07-19 03:41:00,
2013-07-18 23:46:00,82.6,71.4,29.71,WSW,251,10.0,10.0,69,0.00,, +RA,0.97,VWS V14.01,2013-07-19 03:46:00,
2013-07-18 23:51:00,82.6,71.4,29.71,SW,235,11.0,11.0,69,0.00,, +RA,0.97,VWS V14.01,2013-07-19 03:51:00,
2013-07-18 23:56:00,82.8,71.2,29.71,South,188,10.0,14.0,68,0.00,, +RA,0.97,VWS V14.01,2013-07-19 03:56:00,